Chevak, Alaska
Current Conditions -  °F | °C
As of 7:57 AM on Thursday 23 Oct 2014 (Local Time) from PAVA Reporting Station
Light Snow Light Snow  
Wind Chill: 21°   Ceiling: 1600
Heat Index: 32°   Visibility: 3mi
Dew Point: 30°   Wind: 16mph
Humidity: 92%   Direction: 160°SSE
Pressure: 29.87"   Gusts: NA
Location:  61.53°N, 165.59°W
Report Text: PAVA 231557Z AUTO 16014KT 3SM -SN BR FEW003 OVC016 00/M01 A2987 RMK AO2 SLP118 P0000 T00001011 FZRANO
Loading
Personal Weather Stations






























Interactive Weather Map
Tropical Storm Tracking
New forecast layout! Learn more

10-Day Weather Forecast

Advertisements
Track Severe Weather on mobile